Aiguafreda





Hora UTC 12:45
Temperatura 23.5 ºC
Sòl 15 cm 28.5 ºC
Humitat 44.7 %
Pressió 1017.2 hPa
Pluja 0.1 mm
Velocitat vent 10.4 km/h
Direcció vent SE
Radiació solar 681.7 W/m²

Dades diàries 2021-09-19



Hora UTC (hivern +1h; estiu +2h)
Temperatura (ºC) Humitat (%) Pressió (hPa) Velocitat vent (km/h) Precipitació (mm) Radiació solar (W/m²)
Hora UTC Aire Sòl 15 cm Humitat Pressió Vel. Dir. Vel. Max Dir. Intent. màx 5 min. Rad. Sol.
00:05 17.8 17.3 97.1 1014.8 1.5 ESE 1.5 E 0.0 0.0
00:10 17.8 17.3 97.1 1014.9 0.9 NW 6.1 WNW 0.0 0.0
00:15 17.8 17.3 97.2 1015.0 0.4 N 3.4 NNW 0.0 0.0
00:20 17.8 17.2 97.2 1014.9 0.0 NNE 0.0 NE 0.0 0.0
00:25 17.7 17.2 97.1 1015.2 0.0 NNE 0.0 NE 0.0 0.0
00:30 17.7 17.2 97.2 1015.1 0.0 NNE 0.0 NE 0.0 0.0
00:35 17.7 17.1 97.1 1015.2 0.3 NNE 3.4 NE 0.0 0.0
00:40 17.4 16.9 96.6 1015.2 2.5 N 6.1 NNE 0.0 0.0
00:45 17.3 16.7 96.6 1015.2 0.5 NE 3.4 NE 0.0 0.0
00:50 17.2 16.6 96.6 1015.3 1.3 N 6.1 NNE 0.0 0.0
00:55 17.1 16.5 96.5 1015.2 0.6 E 3.4 NE 0.0 0.0
01:00 16.8 16.3 96.3 1015.0 0.6 ENE 6.1 ESE 0.0 0.0
01:05 16.7 16.1 96.4 1015.1 0.0 NNE 0.0 NE 0.0 0.0
01:10 16.6 16.0 96.5 1015.0 0.0 NNE 0.0 NE 0.0 0.0
01:15 16.5 15.8 96.6 1015.0 0.2 WNW 3.4 NW 0.0 0.0
01:20 16.5 15.7 96.9 1014.9 0.1 W 3.4 W 0.0 0.0
01:25 16.4 15.5 96.8 1015.0 0.0 NNE 0.0 NNW 0.0 0.0
01:30 16.3 15.4 96.8 1015.0 0.0 NNE 0.0 NNW 0.0 0.0
01:35 16.2 15.4 96.9 1014.9 0.7 NNW 3.4 NNW 0.0 0.0
01:40 16.1 15.3 96.9 1015.1 0.0 NNE 0.0 N 0.0 0.0
01:45 16.0 15.1 96.8 1015.2 0.0 NNE 0.0 N 0.0 0.0
01:50 15.9 15.1 97.0 1015.1 0.3 NNW 3.4 NNW 0.0 0.0
01:55 15.9 15.0 97.1 1015.1 0.1 NNE 3.4 NNE 0.0 0.0
02:00 15.8 14.9 97.1 1015.2 0.0 NNE 3.4 NNE 0.0 0.0
02:05 15.6 14.8 97.0 1015.1 0.0 NNE 0.0 NE 0.0 0.0
02:10 15.6 14.7 97.1 1015.2 0.3 WSW 6.1 WSW 0.0 0.0
02:15 15.5 14.6 97.1 1015.2 0.0 NNE 0.0 WSW 0.0 0.0
02:20 15.5 14.7 97.2 1015.2 0.0 WSW 3.4 WSW 0.0 0.0
02:25 15.4 14.6 97.2 1015.3 0.0 NNE 0.0 WSW 0.0 0.0
02:30 15.3 14.5 97.2 1015.3 0.1 N 3.4 NNW 0.0 0.0
02:35 15.2 14.3 97.1 1015.4 0.0 NNE 0.0 WNW 0.0 0.0
02:40 15.1 14.2 97.0 1015.4 0.1 WNW 3.4 WNW 0.0 0.0
02:45 14.9 14.0 96.9 1015.3 0.0 NNE 0.0 WNW 0.0 0.0
02:50 14.7 13.8 97.0 1015.2 0.0 NNE 0.0 NW 0.0 0.0
02:55 14.6 13.7 97.1 1015.5 0.0 NNE 0.0 NW 0.0 0.0
03:00 14.5 13.6 97.1 1015.4 0.0 NNE 0.0 NW 0.0 0.0
03:05 14.4 13.6 97.1 1015.5 0.1 W 3.4 W 0.0 0.0
03:10 14.3 13.6 97.2 1015.5 0.0 NNE 0.0 W 0.0 0.0
03:15 14.4 13.6 97.4 1015.4 0.0 NNE 0.0 W 0.0 0.0
03:20 14.4 13.8 97.4 1015.4 0.0 NNE 0.0 W 0.0 0.0
03:25 14.4 13.8 97.4 1015.4 0.0 NNE 0.0 W 0.0 0.0
03:30 14.3 13.7 97.3 1015.4 0.1 W 3.4 W 0.0 0.0
03:35 14.2 13.7 97.2 1015.5 0.0 NNE 0.0 W 0.0 0.0
03:40 14.1 13.5 97.1 1015.4 0.0 NNE 0.0 NNW 0.0 0.0
03:45 13.9 13.5 97.2 1015.4 0.0 ESE 3.4 ESE 0.0 0.0
03:50 13.9 13.4 97.1 1015.5 0.0 W 3.4 W 0.0 0.0
03:55 13.7 13.2 97.1 1015.4 1.7 WNW 6.1 W 0.0 0.0
04:00 13.7 13.2 97.2 1015.4 0.3 W 3.4 WNW 0.0 0.0
04:05 13.5 13.0 97.1 1015.4 1.3 NW 6.1 WNW 0.0 0.0
04:10 13.3 12.7 97.1 1015.4 0.8 NW 6.1 W 0.0 0.0
04:15 13.2 12.6 97.3 1015.5 0.6 NE 6.1 NE 0.0 0.0
04:20 13.2 12.4 97.3 1015.5 0.0 NNE 0.0 NNE 0.0 0.0
04:25 13.1 12.3 97.3 1015.4 0.0 NNE 0.0 NNE 0.0 0.0
04:30 12.9 12.1 97.2 1015.5 0.0 NNE 0.0 WNW 0.0 0.0
04:35 12.8 12.0 97.2 1015.5 0.0 NNE 0.0 WNW 0.0 0.0
04:40 12.7 11.9 97.2 1015.9 0.0 NNE 0.0 WNW 0.0 0.0
04:45 12.6 11.8 97.3 1015.8 0.5 N 6.1 N 0.0 0.0
04:50 12.5 11.7 97.2 1015.8 0.0 NNE 0.0 NNW 0.0 0.0
04:55 12.3 11.6 97.2 1015.9 0.0 NNE 0.0 NW 0.0 0.0
05:00 12.2 11.5 97.1 1016.1 1.3 N 6.1 NNW 0.1 0.0
05:05 12.1 11.3 97.1 1016.1 3.5 NNE 8.8 ENE 0.0 0.0
05:10 11.9 11.2 96.8 1016.4 5.0 NE 8.8 NE 0.0 0.0
05:15 11.8 11.1 96.9 1016.4 1.6 NNE 6.1 NE 0.0 0.0
05:20 11.7 11.0 96.8 1016.4 1.8 NNE 6.1 NNE 0.0 0.0
05:25 11.5 10.8 96.7 1016.5 4.6 NE 8.8 NNE 0.0 0.0
05:30 11.4 10.7 96.8 1016.6 1.7 NNE 6.1 NNE 0.0 0.0
05:35 11.3 10.6 96.8 1016.6 0.9 NNE 3.4 N 0.0 0.0
05:40 11.2 10.5 96.8 1016.7 0.0 NNE 0.0 NNE 0.0 0.0
05:45 11.2 10.5 96.9 1016.8 0.0 NNE 0.0 NNE 0.0 0.0
05:50 11.1 10.5 96.9 1016.9 0.0 NNE 0.0 NNE 0.0 0.0
05:55 11.1 10.4 97.0 1016.8 0.0 NE 3.4 NE 0.0 0.0
06:00 11.1 10.4 97.1 1016.9 0.3 WNW 3.4 WNW 0.0 0.0
06:05 11.0 10.4 97.1 1017.0 0.0 NNE 0.0 WNW 0.0 0.0
06:10 11.1 10.4 97.2 1017.1 0.0 NNE 0.0 WNW 0.0 0.0
06:15 11.1 10.4 97.1 1017.1 0.0 NNE 0.0 SSE 0.0 0.0
06:20 11.0 10.4 97.1 1017.1 0.0 NNE 0.0 SE 0.0 0.0
06:25 11.0 10.4 97.1 1017.1 0.0 NNE 0.0 SE 0.0 0.0
06:30 11.1 10.5 97.3 1017.2 0.0 SW 3.4 SW 0.0 0.0
06:35 11.1 10.5 97.1 1017.1 0.0 NNE 0.0 SSE 0.0 0.0
06:40 11.1 10.5 97.1 1017.1 0.0 NNE 0.0 SSE 0.0 0.0
06:45 11.2 10.6 97.4 1017.1 0.0 NNE 0.0 SSE 0.0 0.0
06:50 11.4 10.8 97.5 1017.1 0.0 NNE 0.0 S 0.0 0.0
06:55 11.5 10.9 97.4 1017.0 0.0 NNE 0.0 S 0.0 0.0
07:00 11.7 11.0 97.3 1016.9 0.3 WNW 6.1 WNW 0.0 0.0
07:05 11.8 11.2 97.2 1017.0 3.7 SE 8.8 ESE 0.0 0.0
07:10 12.0 11.3 97.1 1017.0 0.2 SE 6.1 SE 0.0 0.0
07:15 12.1 11.4 96.9 1017.1 0.0 NNE 0.0 ESE 0.0 0.0
07:20 12.3 11.6 96.9 1017.2 2.4 ENE 8.8 E 0.0 0.0
07:25 12.6 11.8 96.6 1017.3 2.4 NE 6.1 NNE 0.0 0.0
07:30 12.9 11.9 96.2 1017.3 2.2 NE 8.8 NNE 0.0 0.0
07:35 13.7 12.1 94.9 1017.4 0.3 N 6.1 N 0.0 0.0
07:40 14.4 12.4 91.7 1017.3 0.2 NNW 6.1 NNE 0.0 0.0
07:45 14.9 12.7 88.8 1017.3 0.0 NNE 0.0 NNE 0.0 18.6
07:50 15.6 13.4 85.8 1017.3 0.1 ESE 3.4 SE 0.0 25.6
07:55 16.2 14.6 82.9 1017.5 0.7 SE 6.1 SE 0.0 0.0
08:00 16.6 15.8 79.1 1017.6 0.2 NE 3.4 NE 0.0 105.2
08:05 16.9 16.8 77.9 1017.4 1.5 NNE 8.8 ENE 0.0 75.6
08:10 17.4 17.1 76.0 1017.4 2.8 ENE 8.8 N 0.0 37.6
08:15 17.8 17.6 74.5 1017.5 3.6 NE 11.5 ENE 0.0 0.0
08:20 17.8 17.9 73.2 1017.6 3.2 NE 8.8 NE 0.0 0.0
08:25 18.0 18.4 71.9 1017.7 2.6 NNE 11.5 NNE 0.0 225.2
08:30 18.6 19.1 70.4 1017.7 2.5 NE 8.8 NE 0.0 50.8
08:35 18.9 20.1 69.2 1017.7 2.2 NE 8.8 NE 0.0 0.6
08:40 18.9 20.1 66.9 1017.6 2.9 NNE 8.8 NNE 0.0 0.0
08:45 19.1 20.7 67.3 1017.8 3.0 NNE 8.8 NNE 0.0 0.0
08:50 19.1 20.7 66.7 1017.9 2.8 NE 11.5 NNE 0.0 0.0
08:55 19.1 21.6 67.3 1017.9 2.2 NNE 6.1 NW 0.0 10.6
09:00 19.5 22.4 67.1 1017.8 3.4 SSE 8.8 SSW 0.0 111.4
09:05 19.6 22.6 66.9 1017.8 3.8 SSW 8.8 SE 0.0 114.4
09:10 19.9 23.2 64.9 1018.0 4.1 WSW 8.8 SW 0.0 71.7
09:15 19.9 22.9 65.2 1018.0 3.7 SSE 11.5 SW 0.0 119.1
09:20 20.1 23.4 64.9 1017.8 4.4 NW 11.5 W 0.0 140.4
09:25 20.1 23.4 65.3 1017.9 3.8 E 8.8 W 0.0 233.6
09:30 20.4 23.9 65.1 1017.8 3.6 S 8.8 SSE 0.0 297.2
09:35 20.6 24.6 64.1 1018.0 2.9 S 8.8 SSW 0.0 292.1
09:40 20.5 24.5 63.4 1018.1 3.6 S 8.8 SSW 0.0 313.0
09:45 20.6 24.9 63.6 1017.9 6.0 SW 16.9 WSW 0.0 303.0
09:50 20.8 25.3 62.1 1018.0 3.1 W 8.8 W 0.0 428.4
09:55 21.2 25.6 60.9 1018.0 3.7 NE 11.5 NNE 0.0 425.9
10:00 21.2 25.5 60.0 1017.9 6.2 NNE 11.5 NE 0.0 440.0
10:05 21.3 25.5 58.7 1017.9 4.3 NNE 8.8 ENE 0.0 431.0
10:10 21.2 25.7 58.0 1017.9 4.5 NNE 11.5 NNE 0.0 464.4
10:15 21.5 25.8 58.5 1017.7 3.1 ENE 8.8 NE 0.0 547.4
10:20 22.2 26.9 55.0 1017.7 3.8 SW 11.5 WSW 0.0 539.1
10:25 22.1 27.1 54.3 1017.7 3.9 NNE 14.2 WNW 0.0 515.8
10:30 22.2 26.7 54.6 1017.8 3.7 NE 8.8 NNE 0.0 548.9
10:35 22.6 27.5 54.8 1017.7 3.3 S 11.5 NNW 0.0 515.2
10:40 22.5 26.9 55.2 1017.5 3.9 NE 11.5 ENE 0.0 538.7
10:45 22.6 27.1 55.1 1017.6 4.2 W 11.5 W 0.0 641.8
10:50 22.6 26.9 54.3 1017.6 3.5 WNW 11.5 WSW 0.0 659.5
10:55 22.7 26.7 55.1 1017.5 5.8 E 14.2 ENE 0.0 662.4
11:00 23.0 27.3 55.2 1017.4 4.5 SW 8.8 S 0.0 666.0
11:05 23.3 28.1 53.7 1017.5 2.2 S 8.8 ESE 0.0 656.2
11:10 23.5 28.7 52.3 1017.5 1.6 SSE 6.1 SE 0.0 592.5
11:15 23.6 28.6 52.3 1017.4 4.5 S 11.5 S 0.0 622.8
11:20 23.0 27.8 53.6 1017.3 5.5 SSE 11.5 SSE 0.0 599.2
11:25 23.0 28.0 53.9 1017.4 6.1 SE 14.2 SE 0.0 694.7
11:30 23.1 27.8 53.4 1017.3 7.7 SE 11.5 ESE 0.0 750.0
11:35 23.2 28.2 53.0 1017.6 5.9 SE 11.5 SE 0.0 751.8
11:40 23.1 27.3 53.1 1017.4 6.4 S 14.2 ESE 0.0 343.4
11:45 23.6 28.8 51.5 1017.3 3.4 SSW 11.5 S 0.0 689.3
11:50 23.8 29.5 50.2 1017.4 7.7 SW 14.2 S 0.0 676.8
11:55 23.8 29.2 49.6 1017.1 7.8 S 14.2 SSE 0.0 707.2
12:00 23.7 28.7 49.1 1017.2 8.4 SSE 16.9 SSE 0.0 625.0
12:05 23.4 28.4 49.1 1017.3 7.3 S 14.2 SSE 0.0 637.2
12:10 23.6 29.2 47.2 1017.3 3.5 SSE 11.5 S 0.0 638.3
12:15 23.9 29.2 47.6 1017.3 7.9 SSE 14.2 SE 0.0 579.3
12:20 23.9 28.9 47.7 1017.2 9.4 S 19.6 SSW 0.0 580.7
12:25 23.7 28.5 47.3 1017.1 10.0 SSE 19.6 SSE 0.0 641.8
12:30 24.0 28.9 46.2 1017.3 8.8 SSE 19.6 SSE 0.0 665.1
12:35 24.2 29.4 44.4 1017.3 8.6 SSE 22.3 SSE 0.0 656.4
12:40 23.7 28.5 45.4 1017.0 11.1 SSE 19.6 S 0.0 684.5
12:45 23.5 28.5 44.7 1017.2 10.4 SE 19.6 SE 0.0 681.7
Màxima 24.3 29.5 97.5 1018.1 11.1 SSE 22.3 SSE 0.1 751.8
Mínima 11.0 10.4 44.4 1014.8
Total 0.1